Time;durP1;ratioP1;P1;durP2;ratioP2;P2;SDS_P1;SDS_P2;PMS_P1;PMS_P2;Temp;Humidity;BMP_temperature;BMP_pressure;BME280_temperature;BME280_humidity;BME280_pressure;Samples;Min_cycle;Max_cycle;Signal;HPM_P1;HPM_P2
2022/11/03 00:01:32;;;;;;;11.47;2.70;;;12.90;99.90;;;;;;5036109;28;20233;-87
2022/11/03 00:04:00;;;;;;;12.50;2.70;;;12.90;99.90;;;;;;5036532;28;20211;-88
2022/11/03 00:06:27;;;;;;;14.70;2.90;;;12.90;99.90;;;;;;5036409;28;20202;-88
2022/11/03 00:08:58;;;;;;;9.47;2.43;;;12.90;99.90;;;;;;5036187;28;20238;-87
2022/11/03 00:11:25;;;;;;;9.20;2.63;;;12.90;99.90;;;;;;5036369;28;20218;-94
2022/11/03 00:13:52;;;;;;;8.80;2.50;;;12.90;99.90;;;;;;5036830;28;20209;-87
2022/11/03 00:16:20;;;;;;;14.23;2.80;;;12.90;99.90;;;;;;5036780;28;20230;-86
2022/11/03 00:18:47;;;;;;;13.43;2.87;;;12.90;99.90;;;;;;5036119;28;20215;-86
2022/11/03 00:21:15;;;;;;;10.53;3.00;;;12.90;99.90;;;;;;5035520;28;20205;-89
2022/11/03 00:23:43;;;;;;;8.10;2.33;;;12.90;99.90;;;;;;5035888;28;20210;-92
2022/11/03 00:26:14;;;;;;;10.33;2.40;;;12.90;99.90;;;;;;5036446;28;20206;-87
2022/11/03 00:28:48;;;;;;;12.70;2.77;;;12.90;99.90;;;;;;5035855;28;20607;-85
2022/11/03 00:31:18;;;;;;;9.60;2.70;;;13.00;99.90;;;;;;5036339;28;20209;-86
2022/11/03 00:33:45;;;;;;;12.07;2.50;;;12.90;99.90;;;;;;5037101;28;20218;-87
2022/11/03 00:36:14;;;;;;;11.80;2.93;;;13.00;99.90;;;;;;5035511;28;20206;-91
2022/11/03 00:38:42;;;;;;;7.07;2.50;;;12.90;99.90;;;;;;5036427;28;20563;-91
2022/11/03 00:41:11;;;;;;;8.47;2.40;;;12.90;99.90;;;;;;5036931;28;20202;-87
2022/11/03 00:43:41;;;;;;;9.13;2.63;;;12.90;99.90;;;;;;5036881;28;20216;-90
2022/11/03 00:46:10;;;;;;;12.83;3.10;;;12.90;99.90;;;;;;5035845;28;20544;-86
2022/11/03 00:48:41;;;;;;;12.83;2.67;;;12.90;99.90;;;;;;5034895;28;20234;-84
2022/11/03 00:51:10;;;;;;;11.47;2.53;;;12.80;99.90;;;;;;5035462;28;20536;-87
2022/11/03 00:53:38;;;;;;;8.27;2.47;;;12.90;99.90;;;;;;5035270;28;20218;-85
2022/11/03 00:56:10;;;;;;;9.40;2.43;;;13.00;99.90;;;;;;5035407;28;20211;-86
2022/11/03 00:58:37;;;;;;;9.87;2.33;;;12.80;99.90;;;;;;5035239;28;20211;-86
2022/11/03 01:01:12;;;;;;;8.17;2.70;;;12.70;99.90;;;;;;5035310;28;20199;-86
2022/11/03 01:06:48;;;;;;;13.00;2.37;;;12.70;99.90;;;;;;5035424;28;20219;-86
2022/11/03 01:06:49;;;;;;;9.87;2.90;;;12.80;99.90;;;;;;5035144;28;20213;-87
2022/11/03 01:09:16;;;;;;;9.03;2.80;;;12.80;99.90;;;;;;5034655;28;20315;-87
2022/11/03 01:11:48;;;;;;;9.70;2.70;;;12.90;99.90;;;;;;5035975;28;20219;-86
2022/11/03 01:14:16;;;;;;;9.23;2.53;;;12.90;99.90;;;;;;5035567;28;20196;-86
2022/11/03 01:16:44;;;;;;;14.13;2.73;;;12.90;99.90;;;;;;5035271;28;20353;-87
2022/11/03 01:19:11;;;;;;;10.40;3.00;;;12.90;99.90;;;;;;5034805;28;20578;-87
2022/11/03 01:21:43;;;;;;;10.20;3.30;;;12.90;99.90;;;;;;5034751;28;20221;-87
2022/11/03 01:24:10;;;;;;;10.10;2.17;;;13.00;99.90;;;;;;5034851;28;20555;-87
2022/11/03 01:26:43;;;;;;;10.80;2.63;;;13.00;99.90;;;;;;5034944;28;20210;-85
2022/11/03 01:29:11;;;;;;;11.40;2.77;;;13.00;99.90;;;;;;5034641;28;20229;-85
2022/11/03 01:31:38;;;;;;;11.43;2.70;;;13.10;99.90;;;;;;5034263;28;20306;-87
2022/11/03 01:34:07;;;;;;;12.50;2.53;;;13.20;99.90;;;;;;5034165;28;20558;-86
2022/11/03 01:36:34;;;;;;;9.83;2.20;;;13.20;99.90;;;;;;5034187;28;20557;-85
2022/11/03 01:39:02;;;;;;;10.53;2.43;;;13.20;99.90;;;;;;5034418;28;20199;-86
2022/11/03 01:41:28;;;;;;;7.47;2.97;;;13.30;99.90;;;;;;5034110;28;20207;-87
2022/11/03 01:44:29;;;;;;;9.17;2.33;;;13.30;99.90;;;;;;5034732;28;20210;-87
2022/11/03 01:47:07;;;;;;;7.73;2.43;;;13.30;99.90;;;;;;5020247;28;20205;-86
2022/11/03 01:49:38;;;;;;;13.43;2.57;;;13.30;99.90;;;;;;5034396;28;20230;-87
2022/11/03 01:52:11;;;;;;;7.63;2.20;;;13.30;99.90;;;;;;5034233;28;20191;-86
2022/11/03 01:54:41;;;;;;;12.77;2.70;;;13.30;99.90;;;;;;5034310;28;20214;-88
2022/11/03 01:57:13;;;;;;;11.50;2.33;;;13.30;99.90;;;;;;5034465;28;20210;-89
2022/11/03 01:59:42;;;;;;;12.77;2.97;;;13.20;99.90;;;;;;5034520;28;20340;-92
2022/11/03 02:02:11;;;;;;;12.60;2.50;;;13.20;99.90;;;;;;5042454;28;20229;-84
2022/11/03 02:04:41;;;;;;;9.73;2.77;;;13.20;99.90;;;;;;5047035;28;20205;-84
2022/11/03 02:07:15;;;;;;;7.87;2.20;;;13.20;99.90;;;;;;5049348;28;20191;-84
2022/11/03 02:09:44;;;;;;;8.90;2.40;;;13.30;99.90;;;;;;5039603;28;20214;-86
2022/11/03 02:12:11;;;;;;;9.27;2.63;;;13.20;99.90;;;;;;5040900;28;20218;-86
2022/11/03 02:14:45;;;;;;;8.50;2.40;;;13.20;99.90;;;;;;5040281;28;20212;-85
2022/11/03 02:17:13;;;;;;;11.20;2.70;;;13.20;99.90;;;;;;5034070;28;20232;-86
2022/11/03 02:19:47;;;;;;;7.23;2.23;;;13.20;99.90;;;;;;5034083;28;20219;-86
2022/11/03 02:22:44;;;;;;;10.97;2.43;;;13.20;99.90;;;;;;5034361;28;20206;-91
2022/11/03 02:25:18;;;;;;;8.83;2.60;;;13.10;99.90;;;;;;5034205;28;20214;-93
2022/11/03 02:27:46;;;;;;;9.00;2.27;;;13.00;99.90;;;;;;5034201;28;20213;-85
2022/11/03 02:30:13;;;;;;;7.27;2.23;;;13.10;99.90;;;;;;5034016;28;20205;-87
2022/11/03 02:32:47;;;;;;;8.23;2.00;;;13.20;99.90;;;;;;5034170;28;20207;-93
2022/11/03 02:35:20;;;;;;;11.43;2.77;;;13.10;99.90;;;;;;5034458;28;20211;-88
2022/11/03 02:37:51;;;;;;;10.37;2.40;;;13.10;99.90;;;;;;5034374;28;20638;-93
2022/11/03 02:40:25;;;;;;;11.53;2.23;;;13.10;99.90;;;;;;5034567;28;20676;-87
2022/11/03 02:42:54;;;;;;;10.63;2.70;;;13.10;99.90;;;;;;5034548;28;20206;-91
2022/11/03 02:45:29;;;;;;;8.63;1.80;;;13.00;99.90;;;;;;5033793;28;20651;-84
2022/11/03 02:48:00;;;;;;;8.93;2.40;;;13.00;99.90;;;;;;5024929;28;20190;-85
2022/11/03 02:50:28;;;;;;;6.67;2.20;;;13.00;99.90;;;;;;5042605;28;20190;-84
2022/11/03 02:52:56;;;;;;;9.57;2.23;;;13.00;99.90;;;;;;5042544;28;20210;-84
2022/11/03 02:55:33;;;;;;;7.07;2.13;;;13.00;99.90;;;;;;5042343;28;20240;-87
2022/11/03 02:58:07;;;;;;;11.73;2.47;;;13.10;99.90;;;;;;5041150;28;20202;-85
2022/11/03 03:00:45;;;;;;;8.87;2.27;;;13.00;99.90;;;;;;5039981;28;20202;-87
2022/11/03 03:03:17;;;;;;;9.63;2.57;;;12.90;99.90;;;;;;5033178;28;20286;-86
2022/11/03 03:05:46;;;;;;;8.83;2.70;;;13.00;99.90;;;;;;5033318;28;20202;-86
2022/11/03 03:08:14;;;;;;;5.97;1.77;;;12.90;99.90;;;;;;5033348;28;20234;-86
2022/11/03 03:10:46;;;;;;;12.13;2.90;;;12.90;99.90;;;;;;5033521;28;20578;-87
2022/11/03 03:13:19;;;;;;;11.40;2.30;;;12.90;99.90;;;;;;5033610;28;20218;-85
2022/11/03 03:15:53;;;;;;;13.47;2.83;;;12.90;99.90;;;;;;5033161;28;20207;-85
2022/11/03 03:18:24;;;;;;;7.43;2.40;;;12.90;99.90;;;;;;5033078;28;20214;-91
2022/11/03 03:20:56;;;;;;;7.37;2.33;;;12.90;99.90;;;;;;5032944;28;20194;-89
2022/11/03 03:23:26;;;;;;;7.93;2.27;;;13.00;99.90;;;;;;5033326;28;20201;-87
2022/11/03 03:26:00;;;;;;;9.17;2.37;;;13.00;99.90;;;;;;5033072;28;20209;-87
2022/11/03 03:28:34;;;;;;;9.80;2.60;;;13.00;99.90;;;;;;5032740;28;20233;-87
2022/11/03 03:31:09;;;;;;;7.23;2.13;;;13.00;99.90;;;;;;5034661;28;21042;-88
2022/11/03 03:33:38;;;;;;;8.97;2.40;;;12.90;99.90;;;;;;5041697;28;20656;-88
2022/11/03 03:36:10;;;;;;;6.80;2.67;;;12.90;99.90;;;;;;5042229;28;20209;-86
2022/11/03 03:38:41;;;;;;;10.10;2.07;;;12.80;99.90;;;;;;5037961;28;20250;-86
2022/11/03 03:41:11;;;;;;;5.53;2.20;;;12.80;99.90;;;;;;5043622;28;20199;-85
2022/11/03 03:43:44;;;;;;;8.87;2.40;;;12.80;99.90;;;;;;5043857;28;20213;-84
2022/11/03 03:46:13;;;;;;;9.03;3.10;;;12.90;99.90;;;;;;5041360;28;20221;-86
2022/11/03 03:48:41;;;;;;;9.37;2.80;;;12.90;99.90;;;;;;5036425;28;20219;-86
2022/11/03 03:51:09;;;;;;;5.33;2.33;;;13.00;99.90;;;;;;5036670;28;20345;-85
2022/11/03 03:53:36;;;;;;;9.30;2.30;;;13.00;99.90;;;;;;5036363;28;20206;-86
2022/11/03 03:56:05;;;;;;;8.00;2.60;;;12.90;99.90;;;;;;5036584;28;20213;-86
2022/11/03 03:58:32;;;;;;;6.77;1.83;;;12.90;99.90;;;;;;5036109;28;20210;-87
2022/11/03 04:01:02;;;;;;;8.77;2.47;;;12.90;99.90;;;;;;5036215;28;20214;-85
2022/11/03 04:03:31;;;;;;;9.33;2.70;;;12.90;99.90;;;;;;5036707;28;20201;-86
2022/11/03 04:05:58;;;;;;;8.97;2.60;;;12.90;99.90;;;;;;5036441;28;20207;-92
2022/11/03 04:08:25;;;;;;;6.53;2.70;;;12.90;99.90;;;;;;5034866;28;20435;-88
2022/11/03 04:24:37;;;;;;;7.70;2.50;;;12.90;99.90;;;;;;5035658;28;20692;-87
2022/11/03 04:27:25;;;;;;;14.03;3.57;;;13.00;99.90;;;;;;5035722;28;20211;-85
2022/11/03 04:29:57;;;;;;;9.43;2.60;;;13.00;99.90;;;;;;5035503;28;20222;-87
2022/11/03 04:32:26;;;;;;;10.33;2.83;;;13.00;99.90;;;;;;5039254;28;20669;-85
2022/11/03 04:34:53;;;;;;;14.23;2.87;;;13.00;99.90;;;;;;5040336;28;20202;-85
2022/11/03 04:37:20;;;;;;;13.00;2.80;;;13.00;99.90;;;;;;5039255;28;20218;-85
2022/11/03 04:39:46;;;;;;;7.10;2.30;;;13.00;99.90;;;;;;5039943;28;20207;-86
2022/11/03 04:42:17;;;;;;;11.07;2.33;;;13.10;99.90;;;;;;5041299;28;20296;-85
2022/11/03 04:44:47;;;;;;;11.83;2.40;;;13.00;99.90;;;;;;5041933;28;20218;-88
2022/11/03 04:47:19;;;;;;;9.90;2.43;;;13.00;99.90;;;;;;5041030;28;20206;-87
2022/11/03 04:49:48;;;;;;;10.97;3.07;;;13.00;99.90;;;;;;5035721;28;20222;-93
2022/11/03 04:52:19;;;;;;;6.13;2.27;;;13.10;99.90;;;;;;5035647;28;20211;-87
2022/11/03 04:54:50;;;;;;;9.97;2.97;;;13.00;99.90;;;;;;5035791;28;20199;-90
2022/11/03 04:57:18;;;;;;;8.23;2.33;;;13.00;99.90;;;;;;5022497;28;20207;-92
2022/11/03 04:59:49;;;;;;;5.10;2.00;;;12.90;99.90;;;;;;5017552;28;20689;-85
2022/11/03 05:02:19;;;;;;;6.07;2.70;;;13.00;99.90;;;;;;5038481;28;20199;-86
2022/11/03 05:04:47;;;;;;;10.43;2.87;;;13.00;99.90;;;;;;5042725;28;20229;-86
2022/11/03 05:07:23;;;;;;;11.67;2.40;;;13.00;99.90;;;;;;5039466;28;20213;-86
2022/11/03 05:09:50;;;;;;;7.33;2.50;;;12.90;99.90;;;;;;5043137;28;20238;-86
2022/11/03 05:12:18;;;;;;;9.20;2.30;;;13.00;99.90;;;;;;5042862;28;20207;-83
2022/11/03 05:14:46;;;;;;;9.73;2.90;;;13.00;99.90;;;;;;5046119;28;20225;-84
2022/11/03 05:17:23;;;;;;;11.17;2.40;;;13.20;99.90;;;;;;5043911;28;20589;-90
2022/11/03 05:19:58;;;;;;;7.33;2.47;;;13.10;99.90;;;;;;5035097;28;20217;-88
2022/11/03 05:22:31;;;;;;;11.50;2.30;;;13.20;99.90;;;;;;5035358;28;20209;-87
2022/11/03 05:25:02;;;;;;;10.20;2.73;;;13.10;99.90;;;;;;5034453;28;20235;-90
2022/11/03 05:27:29;;;;;;;7.13;2.30;;;13.10;99.90;;;;;;5034355;28;20203;-85
2022/11/03 05:30:00;;;;;;;9.50;2.60;;;13.20;99.90;;;;;;5034519;28;21072;-85
2022/11/03 05:32:32;;;;;;;11.10;2.80;;;13.20;99.90;;;;;;5038579;28;20198;-84
2022/11/03 05:35:01;;;;;;;9.93;2.83;;;13.20;99.90;;;;;;5048139;28;20222;-89
2022/11/03 05:37:29;;;;;;;8.57;2.37;;;13.20;99.90;;;;;;5048637;28;20206;-84
2022/11/03 05:39:58;;;;;;;10.43;2.43;;;13.20;99.90;;;;;;5045746;28;20213;-88
2022/11/03 05:42:34;;;;;;;6.77;2.40;;;13.20;99.90;;;;;;5043602;28;20207;-90
2022/11/03 05:45:03;;;;;;;10.17;3.23;;;13.30;99.90;;;;;;5036001;28;20202;-86
2022/11/03 05:47:36;;;;;;;8.60;3.10;;;13.30;99.90;;;;;;5030172;28;20245;-85
2022/11/03 05:50:15;;;;;;;7.43;2.83;;;13.30;99.90;;;;;;5025883;28;20245;-85
2022/11/03 05:52:44;;;;;;;9.03;2.03;;;13.30;99.90;;;;;;5033911;28;20219;-88
2022/11/03 05:55:24;;;;;;;10.30;2.40;;;13.30;99.90;;;;;;5037929;28;20205;-86
2022/11/03 05:57:51;;;;;;;15.37;3.40;;;13.30;99.90;;;;;;5037493;28;20203;-87
2022/11/03 06:00:31;;;;;;;13.60;2.87;;;13.20;99.90;;;;;;5037093;28;20202;-86
2022/11/03 06:02:59;;;;;;;11.50;3.00;;;13.20;99.90;;;;;;5038205;28;20202;-85
2022/11/03 06:05:27;;;;;;;8.57;2.83;;;13.20;99.90;;;;;;5038212;28;20211;-85
2022/11/03 06:07:56;;;;;;;8.60;3.23;;;13.40;99.90;;;;;;5039560;28;20202;-84
2022/11/03 06:10:29;;;;;;;10.77;2.83;;;13.30;99.90;;;;;;5039026;28;20257;-86
2022/11/03 06:12:59;;;;;;;12.07;3.07;;;13.30;99.90;;;;;;5040023;28;20206;-87
2022/11/03 06:15:29;;;;;;;11.63;3.50;;;13.30;99.90;;;;;;5042070;28;20439;-85
2022/11/03 06:17:56;;;;;;;8.43;3.03;;;13.40;99.90;;;;;;5040294;28;20230;-87
2022/11/03 06:20:23;;;;;;;15.77;3.40;;;13.40;99.90;;;;;;5033599;28;20217;-86
2022/11/03 06:22:54;;;;;;;8.93;2.83;;;13.40;99.90;;;;;;5033183;28;20720;-86
2022/11/03 06:25:26;;;;;;;12.97;3.53;;;13.40;99.90;;;;;;5033643;28;20205;-89
2022/11/03 06:27:56;;;;;;;12.60;3.10;;;13.50;99.90;;;;;;5033342;28;20203;-89
2022/11/03 06:30:26;;;;;;;10.47;3.37;;;13.40;99.90;;;;;;5033458;28;20235;-88
2022/11/03 06:32:57;;;;;;;8.90;2.73;;;13.40;99.90;;;;;;5036846;28;20191;-87
2022/11/03 06:35:24;;;;;;;9.90;3.53;;;13.40;99.90;;;;;;5044626;28;20210;-84
2022/11/03 06:37:53;;;;;;;15.93;3.23;;;13.40;99.90;;;;;;5045369;28;20207;-85
2022/11/03 06:40:41;;;;;;;13.37;3.40;;;13.40;99.90;;;;;;5046292;28;20207;-89
2022/11/03 06:43:16;;;;;;;8.23;2.53;;;13.40;99.90;;;;;;5041002;28;20214;-84
2022/11/03 06:45:49;;;;;;;9.73;2.67;;;13.30;99.90;;;;;;5052402;28;20352;-84
2022/11/03 06:48:25;;;;;;;9.87;3.00;;;13.30;99.90;;;;;;5047804;28;20253;-88
2022/11/03 06:50:53;;;;;;;11.23;3.07;;;13.30;99.90;;;;;;5033890;28;20237;-87
2022/11/03 06:53:26;;;;;;;13.80;3.13;;;13.20;99.90;;;;;;5032914;28;20209;-88
2022/11/03 06:55:55;;;;;;;11.53;2.60;;;13.20;99.90;;;;;;5033725;28;20206;-86
2022/11/03 06:58:28;;;;;;;9.13;2.50;;;13.20;99.90;;;;;;5033569;28;20226;-86
2022/11/03 07:00:57;;;;;;;11.97;3.53;;;13.40;99.90;;;;;;5033237;28;20198;-86
2022/11/03 07:03:30;;;;;;;8.47;3.00;;;13.30;99.90;;;;;;5032178;28;20199;-84
2022/11/03 07:05:58;;;;;;;12.13;3.17;;;13.30;99.90;;;;;;5038579;28;20545;-89
2022/11/03 07:08:29;;;;;;;8.53;2.50;;;13.40;99.90;;;;;;5042212;28;20195;-88
2022/11/03 07:11:02;;;;;;;6.83;2.40;;;13.40;99.90;;;;;;5042938;28;20237;-86
2022/11/03 07:13:34;;;;;;;10.30;2.60;;;13.30;99.90;;;;;;5046500;28;20278;-86
2022/11/03 07:16:01;;;;;;;11.47;3.13;;;13.40;99.90;;;;;;5032902;28;20223;-87
2022/11/03 07:18:31;;;;;;;8.33;2.37;;;13.40;99.90;;;;;;5029302;28;20280;-88
2022/11/03 07:21:06;;;;;;;11.93;2.40;;;13.40;99.90;;;;;;5019028;28;20221;-88
2022/11/03 07:23:35;;;;;;;9.43;2.70;;;13.50;99.90;;;;;;5019402;28;20211;-87
2022/11/03 07:26:03;;;;;;;6.77;2.33;;;13.50;99.90;;;;;;5018788;28;20647;-87
2022/11/03 07:28:34;;;;;;;11.13;2.93;;;13.40;99.90;;;;;;5018240;28;20214;-86
2022/11/03 07:31:14;;;;;;;11.53;3.37;;;13.40;99.90;;;;;;5017737;28;20228;-86
2022/11/03 07:33:42;;;;;;;12.83;2.97;;;13.50;99.90;;;;;;5019743;28;20196;-86
2022/11/03 07:36:13;;;;;;;14.17;2.47;;;13.50;99.90;;;;;;5030524;28;20204;-86
2022/11/03 07:38:43;;;;;;;11.70;3.40;;;13.60;99.90;;;;;;5040900;28;20206;-87
2022/11/03 07:41:14;;;;;;;9.10;2.20;;;13.60;99.90;;;;;;5041243;28;20214;-86
2022/11/03 07:43:41;;;;;;;7.00;2.47;;;13.60;99.90;;;;;;5022283;28;20211;-88
2022/11/03 07:46:19;;;;;;;8.90;3.27;;;13.50;99.90;;;;;;5037941;28;20192;-87
2022/11/03 07:48:47;;;;;;;10.20;2.50;;;13.60;99.90;;;;;;5037301;28;20207;-87
2022/11/03 07:51:20;;;;;;;10.10;2.77;;;13.70;99.90;;;;;;5036084;28;20219;-92
2022/11/03 07:53:50;;;;;;;9.60;3.30;;;13.60;99.90;;;;;;5036349;28;20199;-86
2022/11/03 07:56:19;;;;;;;9.70;2.77;;;13.70;99.90;;;;;;5036131;28;20208;-89
2022/11/03 07:58:49;;;;;;;12.67;2.70;;;13.60;99.90;;;;;;5036244;28;20199;-89
2022/11/03 08:01:25;;;;;;;9.10;2.80;;;13.70;99.90;;;;;;5035659;28;20199;-92
2022/11/03 08:03:55;;;;;;;10.50;4.37;;;13.80;99.90;;;;;;5036307;28;20207;-93
2022/11/03 08:06:22;;;;;;;11.83;2.80;;;13.70;99.90;;;;;;5036539;28;20210;-92
2022/11/03 08:08:50;;;;;;;9.80;2.70;;;13.70;99.90;;;;;;5036688;28;20206;-89
2022/11/03 08:11:17;;;;;;;11.87;2.73;;;13.70;99.90;;;;;;5036149;28;20238;-85
2022/11/03 08:13:44;;;;;;;10.63;2.50;;;13.60;99.90;;;;;;5036322;28;20204;-92
2022/11/03 08:16:10;;;;;;;11.53;3.00;;;13.70;99.90;;;;;;5036105;28;20223;-85
2022/11/03 08:18:37;;;;;;;9.67;2.63;;;13.80;99.90;;;;;;5035354;28;20211;-86
2022/11/03 08:21:04;;;;;;;8.67;2.10;;;13.80;99.90;;;;;;5035823;28;20206;-93
2022/11/03 08:23:32;;;;;;;8.23;2.40;;;13.60;99.90;;;;;;5041466;28;20195;-92
2022/11/03 08:26:01;;;;;;;7.40;2.37;;;13.70;99.90;;;;;;5041767;28;20314;-87
2022/11/03 08:28:28;;;;;;;11.57;2.73;;;13.70;99.90;;;;;;5038747;28;20195;-85
2022/11/03 08:31:00;;;;;;;8.43;2.63;;;13.70;99.90;;;;;;5037743;28;20219;-87
2022/11/03 08:33:27;;;;;;;7.97;2.40;;;13.80;99.90;;;;;;5035840;28;20229;-86
2022/11/03 08:35:53;;;;;;;8.27;2.30;;;13.70;99.90;;;;;;5035126;28;20655;-91
2022/11/03 08:38:20;;;;;;;9.53;2.87;;;13.70;99.90;;;;;;5035446;28;20196;-92
2022/11/03 08:40:48;;;;;;;9.13;2.60;;;13.80;99.90;;;;;;5035987;28;20207;-89
2022/11/03 08:43:16;;;;;;;7.33;2.70;;;13.70;99.90;;;;;;5036006;28;20658;-92
2022/11/03 08:45:44;;;;;;;6.70;2.17;;;13.70;99.90;;;;;;5035699;28;20214;-92
2022/11/03 08:48:11;;;;;;;8.57;2.90;;;13.70;99.90;;;;;;5036229;28;20222;-88
2022/11/03 08:50:38;;;;;;;7.77;2.27;;;13.80;99.90;;;;;;5035828;28;20241;-90
2022/11/03 08:53:04;;;;;;;6.87;3.07;;;13.80;99.90;;;;;;5035756;28;20214;-89
2022/11/03 08:55:31;;;;;;;7.70;2.27;;;13.60;99.90;;;;;;5035951;28;20211;-90
2022/11/03 08:57:58;;;;;;;9.90;2.60;;;13.60;99.90;;;;;;5036107;28;20218;-88
2022/11/03 09:00:27;;;;;;;9.13;2.90;;;13.60;99.90;;;;;;5034821;28;20211;-88
2022/11/03 09:02:54;;;;;;;8.83;2.47;;;13.60;99.90;;;;;;5035838;28;20199;-92
2022/11/03 09:05:20;;;;;;;6.37;2.50;;;13.70;99.90;;;;;;5035867;28;20203;-92
2022/11/03 09:07:47;;;;;;;6.70;2.47;;;13.90;99.90;;;;;;5036047;28;20209;-91
2022/11/03 09:10:14;;;;;;;9.33;2.90;;;13.90;99.90;;;;;;5035520;28;20238;-91
2022/11/03 09:12:41;;;;;;;8.27;2.20;;;13.90;99.90;;;;;;5035817;28;20211;-92
2022/11/03 09:15:08;;;;;;;3.83;2.87;;;14.10;99.90;;;;;;5035691;28;20207;-88
2022/11/03 09:17:37;;;;;;;5.90;2.27;;;14.10;99.90;;;;;;5035079;28;20230;-88
2022/11/03 09:20:04;;;;;;;12.73;2.30;;;14.20;99.90;;;;;;5035556;28;20583;-86
2022/11/03 09:22:31;;;;;;;8.47;2.43;;;14.20;99.90;;;;;;5034639;28;20657;-89
2022/11/03 09:24:58;;;;;;;9.27;3.13;;;14.10;99.90;;;;;;5034206;28;20791;-88
2022/11/03 09:27:24;;;;;;;11.43;2.37;;;14.20;99.90;;;;;;5034682;28;20203;-84
2022/11/03 09:29:51;;;;;;;7.87;3.00;;;14.20;99.90;;;;;;5034574;28;20226;-94
2022/11/03 09:32:19;;;;;;;8.83;2.60;;;14.30;99.90;;;;;;5034021;28;20196;-90
2022/11/03 09:34:47;;;;;;;8.63;2.40;;;14.40;99.90;;;;;;5034250;28;20192;-87
2022/11/03 09:37:14;;;;;;;6.07;2.47;;;14.50;99.90;;;;;;5034565;28;20196;-88
2022/11/03 09:39:41;;;;;;;5.90;2.20;;;14.50;99.90;;;;;;5034909;28;20643;-91
2022/11/03 09:42:10;;;;;;;8.07;2.40;;;14.60;99.90;;;;;;5034363;28;20207;-91
2022/11/03 09:44:37;;;;;;;7.13;2.80;;;14.60;99.90;;;;;;5032246;28;20208;-91
2022/11/03 09:47:05;;;;;;;6.93;2.73;;;14.60;99.90;;;;;;5034571;28;20207;-84
2022/11/03 09:49:33;;;;;;;5.80;2.47;;;14.60;99.90;;;;;;5034396;28;20214;-86
2022/11/03 09:52:03;;;;;;;9.20;2.47;;;14.70;99.90;;;;;;5034608;28;20600;-83
2022/11/03 09:54:31;;;;;;;7.40;2.20;;;14.80;99.90;;;;;;5034337;28;20204;-85
2022/11/03 09:57:07;;;;;;;6.80;2.43;;;14.80;99.90;;;;;;5034596;28;20197;-85
2022/11/03 09:59:34;;;;;;;6.93;3.00;;;14.90;99.90;;;;;;5034379;28;20205;-85
2022/11/03 10:02:02;;;;;;;8.00;2.80;;;14.90;99.90;;;;;;5035009;28;20196;-87
2022/11/03 10:04:31;;;;;;;7.47;2.40;;;15.00;99.90;;;;;;5034377;28;20323;-87
2022/11/03 10:06:58;;;;;;;3.77;1.93;;;15.10;99.90;;;;;;5033646;28;20315;-87
2022/11/03 10:09:29;;;;;;;10.60;2.30;;;15.30;99.90;;;;;;5033874;28;20649;-86
2022/11/03 10:11:56;;;;;;;6.73;2.40;;;15.40;99.90;;;;;;5033385;28;20238;-87
2022/11/03 10:14:23;;;;;;;7.87;2.23;;;15.70;99.90;;;;;;5033874;28;20210;-87
2022/11/03 10:16:53;;;;;;;7.07;2.17;;;15.60;99.90;;;;;;5033536;28;20229;-86
2022/11/03 10:19:19;;;;;;;5.03;1.80;;;15.60;99.90;;;;;;5033713;28;20219;-87
2022/11/03 10:21:46;;;;;;;5.50;2.13;;;15.60;99.90;;;;;;5033868;28;20217;-88
2022/11/03 10:24:14;;;;;;;4.60;1.80;;;15.70;99.90;;;;;;5033809;28;20201;-86
2022/11/03 10:26:47;;;;;;;9.00;1.90;;;15.60;99.90;;;;;;5033822;28;20216;-87
2022/11/03 10:29:24;;;;;;;7.87;1.97;;;15.60;99.90;;;;;;5033265;28;20215;-88
2022/11/03 10:31:53;;;;;;;7.93;2.27;;;15.60;99.90;;;;;;5033545;28;20220;-86
2022/11/03 10:34:32;;;;;;;6.83;2.37;;;15.70;99.90;;;;;;5033443;28;20201;-86
2022/11/03 10:37:13;;;;;;;5.27;2.17;;;15.60;99.90;;;;;;5033435;28;20281;-87
2022/11/03 10:39:40;;;;;;;6.50;2.17;;;15.50;99.90;;;;;;5033629;28;20209;-85
2022/11/03 10:42:18;;;;;;;5.93;1.90;;;15.60;99.90;;;;;;5033668;28;20575;-87
2022/11/03 10:44:45;;;;;;;11.57;2.57;;;15.40;99.90;;;;;;5033266;28;20216;-87
2022/11/03 10:47:26;;;;;;;6.70;3.10;;;15.50;99.90;;;;;;5033813;28;20204;-90
2022/11/03 10:49:54;;;;;;;4.90;1.90;;;15.50;99.90;;;;;;5033998;28;20640;-92
2022/11/03 10:52:23;;;;;;;4.73;2.17;;;15.50;99.90;;;;;;5033791;28;20228;-89
2022/11/03 10:54:52;;;;;;;5.10;1.77;;;15.70;99.90;;;;;;5034184;28;20207;-94
2022/11/03 10:57:23;;;;;;;7.47;2.00;;;15.60;99.90;;;;;;5033636;28;20581;-91
2022/11/03 10:59:54;;;;;;;5.80;2.13;;;15.60;99.90;;;;;;5034607;28;20205;-91
2022/11/03 11:02:35;;;;;;;5.03;2.03;;;15.70;99.90;;;;;;5016491;28;20213;-90
2022/11/03 11:05:14;;;;;;;4.73;2.33;;;15.80;99.90;;;;;;5035433;28;20256;-89
2022/11/03 11:07:43;;;;;;;6.77;1.60;;;15.90;99.90;;;;;;5035626;28;20205;-92
2022/11/03 11:10:14;;;;;;;10.67;2.27;;;16.00;99.90;;;;;;5033656;28;20202;-91
2022/11/03 11:13:26;;;;;;;9.97;2.07;;;16.00;99.90;;;;;;5034390;28;20652;-92
2022/11/03 11:16:00;;;;;;;5.50;2.07;;;15.80;99.90;;;;;;5034216;28;20197;-88
2022/11/03 11:19:01;;;;;;;5.70;2.00;;;15.90;99.90;;;;;;5033915;28;20214;-89
2022/11/03 11:21:59;;;;;;;5.93;2.00;;;15.80;99.90;;;;;;5033786;28;20200;-89
2022/11/03 11:25:01;;;;;;;5.20;1.57;;;15.90;99.90;;;;;;5028527;28;20256;-89
2022/11/03 11:27:57;;;;;;;3.57;1.70;;;15.90;99.90;;;;;;5034175;28;20205;-88
2022/11/03 11:30:59;;;;;;;5.23;1.90;;;15.90;99.90;;;;;;5033988;28;20650;-89
2022/11/03 11:33:31;;;;;;;5.07;1.73;;;16.00;99.90;;;;;;4972909;28;20214;-90
2022/11/03 11:36:22;;;;;;;6.20;1.60;;;16.00;99.90;;;;;;4973077;28;20204;-90
2022/11/03 11:38:57;;;;;;;6.43;1.92;;;15.90;99.90;;;;;;5033321;28;20446;-89
2022/11/03 11:42:01;;;;;;;2.77;1.70;;;16.10;99.90;;;;;;5033822;28;20329;-89
2022/11/03 11:44:51;;;;;;;3.37;1.50;;;16.30;99.90;;;;;;5033678;28;20209;-89
2022/11/03 11:47:31;;;;;;;5.93;2.23;;;16.30;99.90;;;;;;5034243;28;20192;-90
2022/11/03 11:50:38;;;;;;;6.80;1.93;;;16.30;99.90;;;;;;5033582;28;20206;-90
2022/11/03 11:53:12;;;;;;;4.37;1.70;;;16.30;99.90;;;;;;5034085;28;20203;-89
2022/11/03 11:55:46;;;;;;;5.73;2.00;;;16.30;99.90;;;;;;5037214;28;20211;-90
2022/11/03 11:58:22;;;;;;;4.40;1.70;;;16.40;99.90;;;;;;5037629;28;20202;-90
2022/11/03 12:01:00;;;;;;;6.47;1.80;;;16.50;99.90;;;;;;5037267;28;20206;-91
2022/11/03 12:03:32;;;;;;;9.83;1.97;;;16.60;99.90;;;;;;5037120;28;20191;-91
2022/11/03 12:06:01;;;;;;;4.60;1.80;;;16.70;99.90;;;;;;5038109;28;20203;-90
2022/11/03 12:08:32;;;;;;;5.33;1.70;;;16.70;99.90;;;;;;5037190;28;20209;-90
2022/11/03 12:11:01;;;;;;;4.60;1.80;;;16.70;99.90;;;;;;5037044;28;20238;-90
2022/11/03 12:13:52;;;;;;;5.57;1.80;;;16.90;99.90;;;;;;5036767;28;20188;-89
2022/11/03 12:16:30;;;;;;;7.07;1.50;;;17.10;99.90;;;;;;5021675;28;20235;-88
2022/11/03 12:19:38;;;;;;;5.07;1.63;;;17.20;99.90;;;;;;5037114;28;20586;-88
2022/11/03 12:22:08;;;;;;;3.87;1.57;;;17.10;99.90;;;;;;5036935;28;20211;-89
2022/11/03 12:24:48;;;;;;;4.33;1.60;;;17.10;99.90;;;;;;5036367;28;20545;-89
2022/11/03 12:27:41;;;;;;;5.17;1.50;;;17.20;99.90;;;;;;5037133;28;20203;-90
2022/11/03 12:30:17;;;;;;;4.57;1.70;;;17.20;99.90;;;;;;5036918;28;20205;-90
2022/11/03 12:32:46;;;;;;;3.60;1.70;;;16.90;99.90;;;;;;5036900;28;20217;-89
2022/11/03 12:35:14;;;;;;;2.73;1.53;;;17.00;99.90;;;;;;5037119;28;20204;-89
2022/11/03 12:37:43;;;;;;;6.50;1.70;;;16.80;99.90;;;;;;5037213;28;20240;-90
2022/11/03 12:40:13;;;;;;;3.70;1.63;;;16.60;99.90;;;;;;5037056;28;20218;-89
2022/11/03 12:42:46;;;;;;;2.30;1.50;;;16.40;99.90;;;;;;5037351;28;20200;-89
2022/11/03 12:45:14;;;;;;;5.50;1.70;;;16.50;99.90;;;;;;5036888;28;20191;-91
2022/11/03 12:47:47;;;;;;;4.93;1.70;;;16.50;99.90;;;;;;5037230;28;20215;-90
2022/11/03 12:50:21;;;;;;;4.33;1.63;;;16.50;99.90;;;;;;5037765;28;20218;-89
2022/11/03 12:52:53;;;;;;;6.30;1.70;;;16.40;99.90;;;;;;5038315;28;20234;-90
2022/11/03 12:55:26;;;;;;;4.13;1.27;;;16.30;99.90;;;;;;5038263;28;20590;-89
2022/11/03 12:57:58;;;;;;;4.03;1.60;;;16.20;99.90;;;;;;5036641;28;20207;-86
2022/11/03 13:00:25;;;;;;;8.27;1.70;;;16.20;99.90;;;;;;5036029;28;20205;-89
2022/11/03 13:02:53;;;;;;;4.67;1.60;;;16.10;99.90;;;;;;5036151;28;20200;-90
2022/11/03 13:05:24;;;;;;;3.07;1.47;;;16.20;99.90;;;;;;5035344;28;20218;-87
2022/11/03 13:07:54;;;;;;;6.60;2.00;;;16.20;99.90;;;;;;5035106;28;20438;-87
2022/11/03 13:10:21;;;;;;;5.57;1.73;;;16.20;99.90;;;;;;5035578;28;20211;-90
2022/11/03 13:12:51;;;;;;;3.03;1.67;;;16.00;99.90;;;;;;5036085;28;20305;-93
2022/11/03 13:15:18;;;;;;;6.07;3.17;;;15.90;99.90;;;;;;5036190;28;20191;-93
2022/11/03 13:17:45;;;;;;;13.73;2.17;;;15.80;99.90;;;;;;5037215;28;20231;-93
2022/11/03 13:20:15;;;;;;;4.67;1.60;;;15.90;99.90;;;;;;5036798;28;20217;-91